Time;durP1;ratioP1;P1;durP2;ratioP2;P2;SDS_P1;SDS_P2;PMS_P1;PMS_P2;Temp;Humidity;BMP_temperature;BMP_pressure;BME280_temperature;BME280_humidity;BME280_pressure;Samples;Min_cycle;Max_cycle;Signal;HPM_P1;HPM_P2
2023/03/06 00:02:18;;;;;;;13.70;12.90;;;3.80;99.90;;;;;;4941170;28;20204;-44
2023/03/06 00:04:44;;;;;;;14.90;14.00;;;3.80;99.90;;;;;;4940887;28;20300;-43
2023/03/06 00:07:10;;;;;;;14.93;13.93;;;3.80;99.90;;;;;;4939695;28;20181;-45
2023/03/06 00:09:35;;;;;;;14.10;13.30;;;3.80;99.90;;;;;;4939464;28;20193;-45
2023/03/06 00:12:01;;;;;;;14.83;13.90;;;3.80;99.90;;;;;;4939176;28;20464;-44
2023/03/06 00:14:27;;;;;;;14.67;13.77;;;3.90;99.90;;;;;;4939395;28;20718;-49
2023/03/06 00:16:55;;;;;;;14.13;13.10;;;3.90;99.90;;;;;;4939224;28;20192;-42
2023/03/06 00:19:22;;;;;;;14.15;13.25;;;3.80;99.90;;;;;;4939563;28;20229;-43
2023/03/06 00:21:48;;;;;;;14.38;13.38;;;3.80;99.90;;;;;;4935556;28;20189;-43
2023/03/06 00:24:14;;;;;;;14.10;13.20;;;3.90;99.90;;;;;;4939985;28;20240;-46
2023/03/06 00:26:40;;;;;;;14.90;13.90;;;3.90;99.90;;;;;;4939593;28;20490;-45
2023/03/06 00:29:07;;;;;;;14.75;13.75;;;3.90;99.90;;;;;;4940645;28;20448;-44
2023/03/06 00:31:34;;;;;;;15.50;14.50;;;3.90;99.90;;;;;;4924404;28;20652;-44
2023/03/06 00:34:00;;;;;;;15.50;14.50;;;3.90;99.90;;;;;;4941721;28;20212;-45
2023/03/06 00:36:26;;;;;;;15.77;14.65;;;3.90;99.90;;;;;;4943110;28;20192;-43
2023/03/06 00:38:52;;;;;;;15.97;14.77;;;3.90;99.90;;;;;;4942542;28;20193;-44
2023/03/06 00:41:18;;;;;;;15.27;14.23;;;4.00;99.90;;;;;;4942903;28;20205;-44
2023/03/06 00:43:44;;;;;;;15.25;14.15;;;4.00;99.90;;;;;;4942360;28;20204;-47
2023/03/06 00:46:10;;;;;;;15.10;14.10;;;3.90;99.90;;;;;;4943376;28;20189;-45
2023/03/06 00:48:35;;;;;;;15.77;14.77;;;3.90;99.90;;;;;;4943015;28;21091;-43
2023/03/06 00:51:01;;;;;;;15.40;14.40;;;3.80;99.90;;;;;;4944497;28;20268;-48
2023/03/06 00:53:27;;;;;;;15.10;14.13;;;3.80;99.90;;;;;;4942650;29;20232;-44
2023/03/06 00:55:53;;;;;;;15.90;14.90;;;3.90;99.90;;;;;;4942640;28;20280;-46
2023/03/06 00:58:18;;;;;;;15.60;14.50;;;3.80;99.90;;;;;;4943226;28;21010;-47
2023/03/06 01:00:44;;;;;;;15.10;14.10;;;3.80;99.90;;;;;;4943111;28;20181;-46
2023/03/06 01:03:10;;;;;;;16.60;15.40;;;3.80;99.90;;;;;;4942046;28;20190;-44
2023/03/06 01:05:37;;;;;;;15.60;14.50;;;3.80;99.90;;;;;;4941992;28;20185;-44
2023/03/06 01:08:04;;;;;;;15.85;14.65;;;3.80;99.90;;;;;;4942331;29;20196;-47
2023/03/06 01:10:30;;;;;;;14.80;13.75;;;3.80;99.90;;;;;;4942217;28;20196;-46
2023/03/06 01:12:56;;;;;;;16.40;15.20;;;3.80;99.90;;;;;;4942884;28;20194;-45
2023/03/06 01:15:21;;;;;;;15.50;14.43;;;3.80;99.90;;;;;;4942180;28;20297;-46
2023/03/06 01:17:52;;;;;;;15.67;14.63;;;3.80;99.90;;;;;;4943313;28;20496;-47
2023/03/06 01:20:17;;;;;;;15.35;14.35;;;3.80;99.90;;;;;;4943328;28;20188;-48
2023/03/06 01:22:43;;;;;;;15.77;14.70;;;3.80;99.90;;;;;;4940316;29;20191;-51
2023/03/06 01:25:09;;;;;;;16.03;15.00;;;3.90;99.90;;;;;;4942595;28;20654;-46
2023/03/06 01:27:35;;;;;;;16.10;15.00;;;3.80;99.90;;;;;;4941490;28;20670;-48
2023/03/06 01:30:01;;;;;;;15.80;14.80;;;3.70;99.90;;;;;;4941449;28;20472;-47
2023/03/06 01:32:27;;;;;;;15.80;14.73;;;3.70;99.90;;;;;;4940714;28;20189;-48
2023/03/06 01:34:53;;;;;;;16.10;14.90;;;3.80;99.90;;;;;;4943571;28;21008;-48
2023/03/06 01:37:18;;;;;;;16.17;15.07;;;3.70;99.90;;;;;;4942326;29;20189;-45
2023/03/06 01:39:44;;;;;;;16.03;14.93;;;3.70;99.90;;;;;;4941306;28;20785;-46
2023/03/06 01:42:09;;;;;;;16.10;15.00;;;3.70;99.90;;;;;;4940819;28;20189;-49
2023/03/06 01:44:35;;;;;;;16.57;15.37;;;3.60;99.90;;;;;;4944334;28;20719;-49
2023/03/06 01:47:01;;;;;;;15.83;14.73;;;3.60;99.90;;;;;;4940975;29;20198;-48
2023/03/06 01:49:32;;;;;;;16.10;14.90;;;3.60;99.90;;;;;;4942524;28;20302;-45
2023/03/06 01:52:01;;;;;;;16.15;14.95;;;3.60;99.90;;;;;;4942365;28;20189;-49
2023/03/06 01:54:38;;;;;;;15.85;14.70;;;3.50;99.90;;;;;;4941524;28;20217;-49
2023/03/06 01:57:10;;;;;;;16.02;14.93;;;3.50;99.90;;;;;;4941538;28;20572;-49
2023/03/06 01:59:37;;;;;;;15.85;14.65;;;3.40;99.90;;;;;;4942518;28;20182;-49
2023/03/06 02:02:05;;;;;;;15.75;14.55;;;3.40;99.90;;;;;;4941883;28;21278;-49
2023/03/06 02:04:32;;;;;;;16.10;15.00;;;3.40;99.90;;;;;;4940868;28;21179;-50
2023/03/06 02:07:03;;;;;;;16.38;15.27;;;3.40;99.90;;;;;;4941144;28;20830;-48
2023/03/06 02:09:30;;;;;;;15.75;14.65;;;3.40;99.90;;;;;;4940850;28;20293;-45
2023/03/06 02:11:56;;;;;;;16.95;15.55;;;3.30;99.90;;;;;;4941314;28;20182;-49
2023/03/06 02:14:22;;;;;;;16.40;15.10;;;3.30;99.90;;;;;;4942402;28;20209;-47
2023/03/06 02:16:47;;;;;;;16.23;15.00;;;3.30;99.90;;;;;;4940358;28;20204;-48
2023/03/06 02:19:42;;;;;;;16.10;14.80;;;3.30;99.90;;;;;;4941772;28;20571;-48
2023/03/06 02:22:08;;;;;;;15.82;14.63;;;3.30;99.90;;;;;;4942485;28;21186;-44
2023/03/06 02:24:46;;;;;;;16.33;15.15;;;3.30;99.90;;;;;;4940357;28;20201;-44
2023/03/06 02:27:13;;;;;;;17.27;15.77;;;3.30;99.90;;;;;;4942378;28;20283;-46
2023/03/06 02:29:39;;;;;;;17.23;15.90;;;3.20;99.90;;;;;;4939931;28;20198;-46
2023/03/06 02:32:05;;;;;;;16.80;15.50;;;3.30;99.90;;;;;;4940636;28;20216;-44
2023/03/06 02:34:36;;;;;;;17.07;15.77;;;3.20;99.90;;;;;;4941383;28;20903;-47
2023/03/06 02:37:10;;;;;;;16.48;15.07;;;3.20;99.90;;;;;;4941111;28;21242;-46
2023/03/06 02:39:43;;;;;;;17.58;16.10;;;3.20;99.90;;;;;;4941440;28;20570;-43
2023/03/06 02:42:09;;;;;;;16.52;15.27;;;3.20;99.90;;;;;;4940257;28;20208;-46
2023/03/06 02:44:35;;;;;;;17.17;15.70;;;3.20;99.90;;;;;;4940684;28;20288;-44
2023/03/06 02:47:01;;;;;;;17.13;15.73;;;3.30;99.90;;;;;;4939908;28;20250;-49
2023/03/06 02:49:26;;;;;;;16.00;14.80;;;3.30;99.90;;;;;;4940005;28;20682;-47
2023/03/06 02:51:52;;;;;;;17.13;15.83;;;3.10;99.90;;;;;;4941399;28;20188;-49
2023/03/06 02:54:18;;;;;;;17.50;16.13;;;3.10;99.90;;;;;;4939229;28;20213;-49
2023/03/06 02:56:44;;;;;;;17.47;16.07;;;3.10;99.90;;;;;;4939939;28;20589;-46
2023/03/06 02:59:10;;;;;;;17.35;16.15;;;3.10;99.90;;;;;;4941212;28;20185;-47
2023/03/06 03:01:36;;;;;;;17.27;15.77;;;3.00;99.90;;;;;;4940590;28;20193;-47
2023/03/06 03:04:02;;;;;;;16.63;15.27;;;3.00;99.90;;;;;;4940417;28;20726;-44
2023/03/06 03:06:28;;;;;;;17.38;15.98;;;3.00;99.90;;;;;;4940827;28;20204;-44
2023/03/06 03:08:53;;;;;;;17.20;15.87;;;3.00;99.90;;;;;;4939904;28;20185;-49
2023/03/06 03:11:19;;;;;;;17.60;16.20;;;3.00;99.90;;;;;;4940761;28;20192;-46
2023/03/06 03:13:45;;;;;;;17.50;16.20;;;2.90;99.90;;;;;;4940117;28;20216;-43
2023/03/06 03:16:14;;;;;;;16.43;15.10;;;2.90;99.90;;;;;;4939458;28;20556;-42
2023/03/06 03:18:40;;;;;;;17.17;15.90;;;2.90;99.90;;;;;;4942176;28;20238;-46
2023/03/06 03:21:09;;;;;;;16.67;15.38;;;2.80;99.90;;;;;;4940023;28;20198;-49
2023/03/06 03:23:34;;;;;;;17.17;15.70;;;2.70;99.90;;;;;;4940339;28;20232;-48
2023/03/06 03:26:15;;;;;;;17.50;16.30;;;2.80;99.90;;;;;;4939658;28;20583;-45
2023/03/06 03:28:41;;;;;;;17.20;15.77;;;2.80;99.90;;;;;;4939839;28;20975;-44
2023/03/06 03:31:09;;;;;;;18.25;16.75;;;2.80;99.90;;;;;;4940654;28;20181;-50
2023/03/06 03:33:35;;;;;;;17.83;16.42;;;2.70;99.90;;;;;;4940323;28;20193;-47
2023/03/06 03:36:02;;;;;;;17.27;15.90;;;2.60;99.90;;;;;;4940309;28;20237;-47
2023/03/06 03:38:28;;;;;;;17.75;16.40;;;2.60;99.90;;;;;;4940357;29;20284;-45
2023/03/06 03:40:54;;;;;;;18.05;16.50;;;2.60;99.90;;;;;;4941776;28;20196;-42
2023/03/06 03:43:20;;;;;;;18.10;16.70;;;2.40;99.90;;;;;;4939253;28;20185;-43
2023/03/06 03:45:45;;;;;;;17.23;15.90;;;2.50;99.90;;;;;;4940788;28;20191;-50
2023/03/06 03:48:11;;;;;;;17.90;16.37;;;2.50;99.90;;;;;;4940381;28;20192;-47
2023/03/06 03:50:37;;;;;;;17.17;15.97;;;2.40;99.90;;;;;;4939043;28;20235;-43
2023/03/06 03:53:02;;;;;;;16.77;15.47;;;2.40;99.90;;;;;;4940215;29;20216;-46
2023/03/06 03:55:28;;;;;;;18.40;16.90;;;2.40;99.90;;;;;;4939875;28;21323;-46
2023/03/06 03:57:54;;;;;;;17.20;15.80;;;2.30;99.90;;;;;;4939514;28;20258;-48
2023/03/06 04:00:20;;;;;;;16.77;15.27;;;2.30;99.90;;;;;;4940064;28;20441;-48
2023/03/06 04:02:46;;;;;;;16.87;15.57;;;2.20;99.90;;;;;;4940225;28;20287;-45
2023/03/06 04:05:16;;;;;;;17.27;15.97;;;2.20;99.90;;;;;;4939707;28;20444;-45
2023/03/06 04:07:42;;;;;;;17.55;16.15;;;2.20;99.90;;;;;;4940469;28;20432;-43
2023/03/06 04:10:10;;;;;;;16.47;15.10;;;2.20;99.90;;;;;;4939551;28;20206;-48
2023/03/06 04:12:36;;;;;;;17.27;15.82;;;2.20;99.90;;;;;;4938557;28;20448;-45
2023/03/06 04:15:04;;;;;;;17.65;16.27;;;2.20;99.90;;;;;;4938159;29;20582;-47
2023/03/06 04:17:32;;;;;;;17.65;16.25;;;2.10;99.90;;;;;;4939721;28;20185;-43
2023/03/06 04:19:59;;;;;;;17.55;16.10;;;2.20;99.90;;;;;;4940496;28;20207;-43
2023/03/06 04:22:25;;;;;;;18.27;16.70;;;2.10;99.90;;;;;;4939183;28;20187;-46
2023/03/06 04:24:50;;;;;;;17.30;15.80;;;2.10;99.90;;;;;;4941120;28;20221;-48
2023/03/06 04:27:16;;;;;;;16.87;15.57;;;2.10;99.90;;;;;;4942081;28;20204;-44
2023/03/06 04:29:42;;;;;;;17.50;16.00;;;2.10;99.90;;;;;;4941912;28;21100;-47
2023/03/06 04:32:08;;;;;;;18.13;16.53;;;2.00;99.90;;;;;;4939778;28;20204;-46
2023/03/06 04:34:34;;;;;;;17.92;16.42;;;2.00;99.90;;;;;;4938167;28;20259;-44
2023/03/06 04:36:59;;;;;;;16.63;15.40;;;2.00;99.90;;;;;;4940438;28;20534;-47
2023/03/06 04:39:25;;;;;;;17.63;15.97;;;2.00;99.90;;;;;;4938189;29;20264;-46
2023/03/06 04:41:50;;;;;;;17.43;15.97;;;2.00;99.90;;;;;;4940429;28;20602;-44
2023/03/06 04:44:16;;;;;;;17.60;16.10;;;2.00;99.90;;;;;;4939547;28;20195;-48
2023/03/06 04:46:42;;;;;;;17.20;15.80;;;2.00;99.90;;;;;;4940451;28;20988;-45
2023/03/06 04:49:07;;;;;;;16.80;15.40;;;2.00;99.90;;;;;;4939496;29;20259;-45
2023/03/06 04:51:35;;;;;;;17.43;15.83;;;2.00;99.90;;;;;;4941199;28;20195;-46
2023/03/06 04:54:02;;;;;;;17.58;16.17;;;2.00;99.90;;;;;;4938938;29;21386;-44
2023/03/06 04:56:28;;;;;;;18.00;16.10;;;2.00;99.90;;;;;;4941793;28;20184;-42
2023/03/06 04:58:54;;;;;;;16.50;15.18;;;2.00;99.90;;;;;;4939574;28;20186;-47
2023/03/06 05:01:19;;;;;;;16.53;15.03;;;2.00;99.90;;;;;;4940747;28;20555;-46
2023/03/06 05:03:45;;;;;;;17.17;15.77;;;2.00;99.90;;;;;;4940410;28;20192;-46
2023/03/06 05:06:11;;;;;;;17.50;16.13;;;2.00;99.90;;;;;;4938597;28;20196;-43
2023/03/06 05:08:36;;;;;;;17.57;15.90;;;2.00;99.90;;;;;;4939806;28;20196;-44
2023/03/06 05:11:02;;;;;;;16.87;15.53;;;2.00;99.90;;;;;;4940860;28;20200;-44
2023/03/06 05:13:28;;;;;;;16.43;15.03;;;2.00;99.90;;;;;;4940326;28;20212;-43
2023/03/06 05:15:54;;;;;;;15.85;14.52;;;2.00;99.90;;;;;;4938946;28;20204;-46
2023/03/06 05:18:20;;;;;;;15.43;14.10;;;2.00;99.90;;;;;;4943269;28;20232;-45
2023/03/06 05:20:45;;;;;;;18.97;17.17;;;2.00;99.90;;;;;;4942183;28;20856;-47
2023/03/06 05:23:12;;;;;;;17.40;15.53;;;1.90;99.90;;;;;;4941120;28;20498;-43
2023/03/06 05:25:39;;;;;;;17.15;15.63;;;1.90;99.90;;;;;;4942015;28;20204;-44
2023/03/06 05:28:05;;;;;;;18.05;16.58;;;2.00;99.90;;;;;;4941034;28;20694;-44
2023/03/06 05:30:31;;;;;;;15.88;14.45;;;1.90;99.90;;;;;;4941906;28;20205;-46
2023/03/06 05:32:57;;;;;;;17.30;15.85;;;1.90;99.90;;;;;;4942983;28;20250;-46
2023/03/06 05:35:23;;;;;;;16.10;14.57;;;1.90;99.90;;;;;;4942243;28;20252;-48
2023/03/06 05:37:49;;;;;;;16.20;14.70;;;2.00;99.90;;;;;;4942904;28;20957;-44
2023/03/06 05:40:15;;;;;;;17.87;16.30;;;2.00;99.90;;;;;;4943526;28;20663;-46
2023/03/06 05:42:41;;;;;;;17.98;16.50;;;2.00;99.90;;;;;;4941463;28;20440;-43
2023/03/06 05:45:08;;;;;;;16.23;14.97;;;1.90;99.90;;;;;;4942615;29;20286;-47
2023/03/06 05:47:33;;;;;;;16.05;14.85;;;2.00;99.90;;;;;;4942085;29;20186;-46
2023/03/06 05:49:59;;;;;;;16.27;14.93;;;2.00;99.90;;;;;;4942087;29;20207;-45
2023/03/06 05:52:24;;;;;;;16.90;15.40;;;2.00;99.90;;;;;;4942117;28;20231;-45
2023/03/06 05:54:52;;;;;;;17.80;16.40;;;1.90;99.90;;;;;;4941496;28;20209;-47
2023/03/06 05:57:19;;;;;;;17.25;15.65;;;1.90;99.90;;;;;;4942241;28;20207;-46
2023/03/06 05:59:44;;;;;;;18.00;16.38;;;1.90;99.90;;;;;;4943895;28;20251;-45
2023/03/06 06:02:10;;;;;;;17.90;16.30;;;1.90;99.90;;;;;;4941535;28;20194;-45
2023/03/06 06:04:36;;;;;;;17.27;15.77;;;1.90;99.90;;;;;;4942027;28;20618;-44
2023/03/06 06:07:02;;;;;;;17.60;16.10;;;2.00;99.90;;;;;;4941819;29;20215;-44
2023/03/06 06:09:29;;;;;;;18.60;16.92;;;2.10;99.90;;;;;;4941752;29;20288;-46
2023/03/06 06:11:58;;;;;;;16.27;14.73;;;2.10;99.90;;;;;;4942110;29;20315;-49
2023/03/06 06:14:24;;;;;;;17.48;15.65;;;2.20;99.90;;;;;;4941655;29;20209;-45
2023/03/06 06:16:50;;;;;;;18.63;17.03;;;2.30;99.90;;;;;;4956534;28;20195;-47
2023/03/06 06:19:19;;;;;;;18.13;16.52;;;2.40;99.90;;;;;;4941823;29;20236;-47
2023/03/06 06:21:53;;;;;;;18.38;16.73;;;2.40;99.90;;;;;;4941680;29;20188;-43
2023/03/06 06:24:22;;;;;;;17.13;15.73;;;2.50;99.90;;;;;;4941490;28;20185;-46
2023/03/06 06:26:52;;;;;;;16.98;15.48;;;2.50;99.90;;;;;;4941555;28;20189;-43
2023/03/06 06:29:19;;;;;;;17.88;16.38;;;2.50;99.90;;;;;;4941018;28;20193;-42
2023/03/06 06:31:45;;;;;;;16.15;14.70;;;2.60;99.90;;;;;;4941381;28;20689;-46
2023/03/06 06:34:11;;;;;;;18.52;16.92;;;2.60;99.90;;;;;;4939992;28;20679;-43
2023/03/06 06:36:38;;;;;;;17.63;16.02;;;2.70;99.90;;;;;;4940831;28;20188;-43
2023/03/06 06:39:05;;;;;;;17.60;16.00;;;2.70;99.90;;;;;;4940620;29;20231;-47
2023/03/06 06:41:31;;;;;;;18.90;17.10;;;2.70;99.90;;;;;;4940299;28;20181;-47
2023/03/06 06:43:57;;;;;;;17.33;15.87;;;2.80;99.90;;;;;;4940585;28;20185;-47
2023/03/06 06:46:23;;;;;;;18.48;16.98;;;2.90;99.90;;;;;;4940822;29;21022;-48
2023/03/06 06:48:51;;;;;;;18.40;16.73;;;2.90;99.90;;;;;;4940434;29;20185;-49
2023/03/06 06:51:17;;;;;;;18.90;16.98;;;2.90;99.90;;;;;;4940751;28;20182;-45
2023/03/06 06:53:43;;;;;;;19.20;17.60;;;3.00;99.90;;;;;;4940916;28;20196;-48
2023/03/06 06:56:09;;;;;;;17.63;15.93;;;3.10;99.90;;;;;;4940709;28;20413;-45
2023/03/06 06:58:35;;;;;;;18.00;16.30;;;3.00;99.90;;;;;;4940574;28;20232;-46
2023/03/06 07:01:08;;;;;;;19.10;17.37;;;3.00;99.90;;;;;;4942193;28;20177;-47
2023/03/06 07:03:34;;;;;;;17.20;15.70;;;3.10;99.90;;;;;;4940626;29;20276;-48
2023/03/06 07:06:00;;;;;;;18.03;16.53;;;3.10;99.90;;;;;;4940983;29;20182;-48
2023/03/06 07:08:26;;;;;;;18.00;16.20;;;3.20;99.90;;;;;;4941088;29;20979;-46
2023/03/06 07:10:51;;;;;;;18.53;16.93;;;3.30;99.90;;;;;;4939844;28;20441;-47
2023/03/06 07:13:17;;;;;;;17.37;15.93;;;3.30;99.90;;;;;;4939516;29;20413;-51
2023/03/06 07:15:43;;;;;;;18.83;17.23;;;3.30;99.90;;;;;;4939069;28;20663;-50
2023/03/06 07:18:08;;;;;;;18.97;17.07;;;3.30;99.90;;;;;;4939081;28;20485;-44
2023/03/06 07:20:35;;;;;;;19.23;17.53;;;3.40;99.90;;;;;;4937919;28;20189;-47
2023/03/06 07:23:01;;;;;;;21.15;19.35;;;3.50;99.90;;;;;;4938970;28;21005;-46
2023/03/06 07:25:26;;;;;;;18.83;17.17;;;3.60;99.90;;;;;;4938608;28;20193;-43
2023/03/06 07:27:53;;;;;;;19.98;18.25;;;3.70;99.90;;;;;;4940410;28;20309;-46
2023/03/06 07:30:22;;;;;;;19.50;17.70;;;3.80;99.90;;;;;;4940089;29;20273;-47
2023/03/06 07:32:51;;;;;;;19.73;18.05;;;4.00;99.90;;;;;;4939999;29;20440;-49
2023/03/06 07:35:17;;;;;;;17.98;16.17;;;4.10;99.90;;;;;;4940413;29;20213;-47
2023/03/06 07:37:42;;;;;;;18.10;16.50;;;4.20;99.90;;;;;;4940160;29;20755;-46
2023/03/06 07:40:11;;;;;;;15.60;14.20;;;4.30;99.90;;;;;;4937959;28;20953;-44
2023/03/06 07:42:37;;;;;;;16.48;14.88;;;4.30;99.90;;;;;;4940267;28;20200;-50
2023/03/06 07:45:03;;;;;;;18.50;17.00;;;4.30;99.90;;;;;;4939936;28;20197;-47
2023/03/06 07:47:29;;;;;;;17.35;15.85;;;4.30;99.90;;;;;;4939364;28;20437;-49
2023/03/06 07:49:55;;;;;;;17.77;16.13;;;4.00;99.90;;;;;;4939597;28;20220;-46
2023/03/06 07:52:22;;;;;;;17.48;15.98;;;3.90;99.90;;;;;;4940092;29;20174;-48
2023/03/06 07:54:48;;;;;;;16.05;14.65;;;3.90;99.90;;;;;;4939841;29;20353;-45
2023/03/06 07:57:14;;;;;;;17.70;16.10;;;3.80;99.90;;;;;;4940027;29;20267;-49
2023/03/06 07:59:39;;;;;;;18.07;16.20;;;3.90;99.90;;;;;;4941099;28;20189;-47
2023/03/06 08:02:05;;;;;;;17.40;15.70;;;3.90;99.90;;;;;;4940433;28;20483;-47
2023/03/06 08:04:31;;;;;;;17.70;16.02;;;4.00;99.90;;;;;;4939688;28;20541;-45
2023/03/06 08:06:58;;;;;;;17.57;15.93;;;4.20;99.90;;;;;;4939497;28;20189;-46
2023/03/06 08:09:24;;;;;;;16.15;14.75;;;4.10;99.90;;;;;;4939819;29;20837;-50
2023/03/06 08:11:50;;;;;;;16.65;15.15;;;4.10;99.90;;;;;;4938859;29;20663;-50
2023/03/06 08:14:15;;;;;;;17.90;16.03;;;4.20;99.90;;;;;;4939923;28;20209;-48
2023/03/06 08:16:41;;;;;;;16.57;14.97;;;4.40;99.90;;;;;;4939762;29;20310;-46
2023/03/06 08:19:07;;;;;;;17.90;16.20;;;4.40;99.90;;;;;;4939861;29;20434;-47
2023/03/06 08:21:33;;;;;;;21.27;15.70;;;4.40;99.90;;;;;;4940062;28;20210;-47
2023/03/06 08:23:58;;;;;;;17.00;15.50;;;4.50;99.90;;;;;;4939716;29;20425;-47
2023/03/06 08:26:27;;;;;;;17.50;16.00;;;4.50;99.90;;;;;;4939872;29;20903;-46
2023/03/06 08:28:54;;;;;;;17.67;16.08;;;4.60;99.90;;;;;;4938582;28;20189;-44
2023/03/06 08:31:35;;;;;;;17.60;15.73;;;4.70;99.90;;;;;;5017628;28;20246;-47
2023/03/06 08:34:06;;;;;;;18.35;16.52;;;4.80;99.90;;;;;;4938035;28;20850;-50
2023/03/06 08:36:32;;;;;;;17.20;15.50;;;4.80;99.90;;;;;;4939070;28;20197;-47
2023/03/06 08:38:58;;;;;;;18.00;16.43;;;4.90;99.90;;;;;;4938785;29;20211;-50
2023/03/06 08:41:24;;;;;;;17.70;15.93;;;5.10;99.90;;;;;;4937870;28;20558;-46
2023/03/06 08:43:50;;;;;;;17.70;16.10;;;5.00;99.40;;;;;;4938184;29;20421;-47
2023/03/06 08:46:17;;;;;;;17.17;15.57;;;5.00;99.90;;;;;;4938480;29;20934;-48
2023/03/06 08:48:43;;;;;;;17.25;15.75;;;5.00;99.90;;;;;;4936597;28;20196;-46
2023/03/06 08:51:09;;;;;;;17.00;15.40;;;5.00;99.90;;;;;;4937040;28;20186;-47
2023/03/06 08:53:35;;;;;;;17.98;16.30;;;5.00;99.90;;;;;;4939697;29;20185;-45
2023/03/06 08:56:02;;;;;;;18.08;16.50;;;4.90;99.50;;;;;;4937426;28;20656;-43
2023/03/06 08:58:27;;;;;;;17.45;15.85;;;4.90;99.60;;;;;;4937956;28;20197;-50
2023/03/06 09:00:54;;;;;;;17.57;16.07;;;4.90;99.70;;;;;;4939416;28;20656;-49
2023/03/06 09:03:22;;;;;;;18.27;16.58;;;4.90;99.90;;;;;;4938510;28;20512;-46
2023/03/06 09:05:48;;;;;;;19.73;17.30;;;4.90;99.60;;;;;;4939488;28;20181;-46
2023/03/06 09:08:14;;;;;;;18.30;16.50;;;4.90;99.90;;;;;;4938434;28;20265;-45
2023/03/06 09:10:44;;;;;;;19.08;17.17;;;5.10;99.90;;;;;;4941804;29;20197;-46
2023/03/06 09:13:09;;;;;;;19.95;18.15;;;5.20;99.90;;;;;;4943643;28;20256;-45
2023/03/06 09:15:35;;;;;;;18.70;17.10;;;5.30;99.80;;;;;;4942349;29;20216;-50
2023/03/06 09:18:01;;;;;;;18.60;16.90;;;5.30;99.50;;;;;;4942077;28;20771;-47
2023/03/06 09:20:27;;;;;;;20.07;18.07;;;5.40;99.80;;;;;;4941354;28;20488;-49
2023/03/06 09:22:53;;;;;;;18.83;17.08;;;5.30;98.40;;;;;;4940686;28;20323;-45
2023/03/06 09:25:22;;;;;;;18.67;16.93;;;5.40;98.30;;;;;;4941392;29;20268;-49
2023/03/06 09:27:48;;;;;;;18.42;16.73;;;5.30;98.60;;;;;;4941748;29;20326;-48
2023/03/06 09:30:15;;;;;;;19.08;17.33;;;5.30;98.50;;;;;;4942520;29;20207;-50
2023/03/06 09:32:40;;;;;;;19.65;17.75;;;5.40;99.10;;;;;;4940535;29;20225;-44
2023/03/06 09:35:06;;;;;;;18.80;17.10;;;5.60;99.40;;;;;;4943064;28;20324;-47
2023/03/06 09:37:32;;;;;;;18.37;16.57;;;5.60;97.70;;;;;;4941477;28;20550;-49
2023/03/06 09:39:58;;;;;;;19.40;17.60;;;5.60;98.00;;;;;;4941280;28;20794;-48
2023/03/06 09:42:24;;;;;;;18.73;16.83;;;5.90;98.80;;;;;;4941443;29;20532;-46
2023/03/06 09:44:53;;;;;;;18.88;17.13;;;6.10;98.60;;;;;;4941608;29;20698;-45
2023/03/06 09:47:37;;;;;;;18.90;17.00;;;6.20;97.20;;;;;;4941644;29;20197;-44
2023/03/06 09:50:12;;;;;;;18.80;17.08;;;6.30;95.90;;;;;;4941878;29;20220;-46
2023/03/06 09:53:01;;;;;;;19.50;17.70;;;6.50;96.10;;;;;;4941835;29;20185;-45
2023/03/06 09:55:34;;;;;;;19.73;18.02;;;6.50;95.30;;;;;;4941334;28;20475;-45
2023/03/06 09:57:59;;;;;;;19.87;18.07;;;6.40;95.60;;;;;;4941599;29;20186;-48
2023/03/06 10:00:40;;;;;;;18.30;16.70;;;6.60;95.10;;;;;;4942098;28;20511;-48
2023/03/06 10:03:09;;;;;;;19.97;18.07;;;6.80;95.50;;;;;;4941146;28;20181;-48
2023/03/06 10:05:42;;;;;;;19.53;17.80;;;7.10;93.70;;;;;;4941052;29;20425;-48
2023/03/06 10:08:29;;;;;;;19.83;18.13;;;7.10;93.70;;;;;;4940233;28;20452;-46
2023/03/06 10:11:13;;;;;;;20.17;18.37;;;7.50;93.20;;;;;;4942148;28;20436;-48
2023/03/06 10:13:44;;;;;;;19.53;17.93;;;7.90;91.60;;;;;;4938581;28;20442;-46
2023/03/06 10:16:25;;;;;;;19.37;17.70;;;8.10;90.20;;;;;;4940246;29;20433;-48
2023/03/06 10:18:51;;;;;;;20.37;18.57;;;7.80;89.70;;;;;;4940005;28;20530;-46
2023/03/06 10:21:24;;;;;;;20.13;18.17;;;7.60;89.40;;;;;;4940668;28;20413;-46
2023/03/06 10:24:04;;;;;;;21.47;19.37;;;7.20;90.90;;;;;;4940846;29;20424;-50
2023/03/06 10:26:47;;;;;;;20.20;18.48;;;6.60;92.30;;;;;;4940982;29;20421;-52
2023/03/06 10:29:45;;;;;;;19.40;17.60;;;6.50;93.90;;;;;;4939775;28;20189;-44
2023/03/06 10:32:30;;;;;;;20.30;18.30;;;6.50;94.10;;;;;;4969556;28;20433;-52
2023/03/06 10:34:59;;;;;;;18.42;16.73;;;6.20;94.50;;;;;;4939594;28;20358;-48
2023/03/06 10:37:28;;;;;;;20.25;18.25;;;6.10;95.00;;;;;;4939390;28;20243;-46
2023/03/06 10:40:11;;;;;;;21.60;19.50;;;5.90;95.50;;;;;;4943002;28;20665;-50
2023/03/06 10:42:37;;;;;;;21.13;19.05;;;5.70;96.30;;;;;;4939730;28;20624;-48
2023/03/06 10:45:10;;;;;;;20.10;18.07;;;5.60;96.90;;;;;;4939815;28;20193;-45
2023/03/06 10:47:39;;;;;;;19.80;18.00;;;5.60;97.80;;;;;;4940111;29;20190;-44
2023/03/06 10:50:21;;;;;;;19.95;18.10;;;5.70;98.10;;;;;;4940202;29;20189;-46
2023/03/06 10:53:15;;;;;;;19.15;17.17;;;6.00;96.80;;;;;;4940598;29;20193;-46
2023/03/06 10:55:51;;;;;;;21.20;19.10;;;6.20;96.50;;;;;;4939469;29;20436;-45
2023/03/06 10:58:21;;;;;;;19.40;17.55;;;6.30;95.80;;;;;;4939003;28;20191;-46
2023/03/06 11:01:14;;;;;;;19.35;17.45;;;6.30;95.60;;;;;;4941548;28;20182;-46
2023/03/06 11:03:40;;;;;;;20.38;18.27;;;6.50;95.10;;;;;;4939844;29;20209;-48
2023/03/06 11:06:13;;;;;;;20.20;18.20;;;6.50;94.70;;;;;;4940307;28;20993;-47
2023/03/06 11:08:41;;;;;;;19.27;17.45;;;6.50;94.50;;;;;;4939556;29;20200;-47
2023/03/06 11:11:20;;;;;;;19.60;17.80;;;6.70;94.10;;;;;;4940023;28;21065;-51
2023/03/06 11:13:56;;;;;;;21.38;19.17;;;6.70;94.80;;;;;;4939894;28;20242;-50
2023/03/06 11:16:29;;;;;;;19.70;17.90;;;6.90;94.90;;;;;;4939702;29;20177;-46
2023/03/06 11:18:57;;;;;;;21.48;19.33;;;7.10;93.70;;;;;;4939581;28;20241;-45
2023/03/06 11:21:27;;;;;;;21.60;19.50;;;6.90;93.50;;;;;;4939826;28;20418;-49
2023/03/06 11:23:54;;;;;;;21.20;19.10;;;7.00;93.90;;;;;;4939468;28;20471;-50
2023/03/06 11:26:27;;;;;;;21.00;18.90;;;6.70;92.80;;;;;;4939719;29;20260;-47
2023/03/06 11:29:11;;;;;;;20.05;18.15;;;6.60;93.60;;;;;;4939474;29;20429;-47
2023/03/06 11:32:04;;;;;;;19.95;17.95;;;6.50;94.10;;;;;;4939616;28;20173;-45
2023/03/06 11:34:40;;;;;;;21.38;19.15;;;6.40;95.60;;;;;;4965015;28;20281;-47
2023/03/06 11:37:13;;;;;;;21.17;19.08;;;6.20;97.40;;;;;;4939617;29;20192;-47
2023/03/06 11:39:42;;;;;;;22.70;20.52;;;6.00;99.90;;;;;;4939306;29;20614;-44
2023/03/06 11:42:26;;;;;;;22.88;20.58;;;5.70;99.90;;;;;;4939418;29;20185;-44
2023/03/06 11:45:10;;;;;;;22.75;20.40;;;5.40;99.90;;;;;;4939481;29;20977;-49
2023/03/06 11:47:45;;;;;;;23.10;20.67;;;5.30;99.90;;;;;;4939325;28;20181;-46
2023/03/06 11:50:35;;;;;;;22.42;20.13;;;5.30;99.90;;;;;;4932208;29;20196;-48
2023/03/06 11:53:02;;;;;;;21.27;19.17;;;5.40;99.90;;;;;;4937750;29;20212;-47
2023/03/06 11:55:39;;;;;;;21.92;19.70;;;5.40;99.90;;;;;;4939049;29;20244;-47
2023/03/06 11:58:26;;;;;;;21.20;19.13;;;5.30;99.90;;;;;;4939478;28;20640;-46
2023/03/06 12:01:09;;;;;;;23.08;20.60;;;5.30;99.90;;;;;;4940496;28;20190;-43
2023/03/06 12:04:00;;;;;;;22.33;20.13;;;5.40;99.90;;;;;;4939210;29;20678;-46
2023/03/06 12:06:44;;;;;;;23.55;21.15;;;5.30;99.90;;;;;;4939168;28;20191;-48
2023/03/06 12:09:13;;;;;;;28.90;24.00;;;5.20;99.90;;;;;;4939608;29;20182;-48
2023/03/06 12:12:09;;;;;;;24.35;21.80;;;5.30;99.90;;;;;;4938891;29;20205;-47
2023/03/06 12:15:02;;;;;;;24.73;22.23;;;5.50;99.90;;;;;;4938774;29;20736;-49
2023/03/06 12:17:34;;;;;;;25.80;23.02;;;5.90;99.90;;;;;;4939089;28;20780;-50
2023/03/06 12:20:06;;;;;;;25.58;23.08;;;6.30;99.90;;;;;;4938868;29;20188;-48
2023/03/06 12:22:40;;;;;;;25.42;23.08;;;6.70;99.90;;;;;;4938846;28;20189;-46
2023/03/06 12:25:28;;;;;;;24.85;22.55;;;7.00;99.90;;;;;;4939072;28;20223;-47
2023/03/06 12:28:02;;;;;;;23.70;21.40;;;7.10;99.90;;;;;;4945677;28;20272;-46
2023/03/06 12:31:00;;;;;;;24.17;21.80;;;7.10;99.90;;;;;;4944909;29;20425;-49
2023/03/06 12:33:49;;;;;;;23.00;20.90;;;7.10;99.90;;;;;;4945496;28;20416;-46
2023/03/06 12:36:20;;;;;;;24.43;22.03;;;7.10;99.90;;;;;;4943550;29;20440;-50
2023/03/06 12:38:50;;;;;;;21.03;19.03;;;7.20;99.90;;;;;;4945250;29;21089;-50
2023/03/06 12:41:33;;;;;;;22.53;20.30;;;7.20;99.90;;;;;;4945977;29;20437;-46
2023/03/06 12:44:21;;;;;;;23.50;21.10;;;7.10;99.90;;;;;;4944953;29;20722;-49
2023/03/06 12:47:00;;;;;;;21.80;19.77;;;6.90;99.90;;;;;;4945486;28;20446;-45